createdAt,value
2016-02-03T00:00:57.730Z,1006.75
2016-02-03T00:01:57.780Z,1006.7
2016-02-03T00:02:57.830Z,1006.77
2016-02-03T00:03:57.895Z,1006.76
2016-02-03T00:04:57.944Z,1006.71
2016-02-03T00:05:58.010Z,1006.67
2016-02-03T00:06:58.060Z,1006.69
2016-02-03T00:07:58.109Z,1006.67
2016-02-03T00:08:58.158Z,1006.69
2016-02-03T00:09:58.207Z,1006.64
2016-02-03T00:10:58.274Z,1006.63
2016-02-03T00:11:58.323Z,1006.61
2016-02-03T00:12:58.372Z,1006.66
2016-02-03T00:13:58.439Z,1006.62
2016-02-03T00:14:58.490Z,1006.65
2016-02-03T00:15:58.554Z,1006.67
2016-02-03T00:16:58.588Z,1006.66
2016-02-03T00:17:58.653Z,1006.7
2016-02-03T00:18:58.704Z,1006.75
2016-02-03T00:19:58.754Z,1006.79
2016-02-03T00:20:58.804Z,1006.7
2016-02-03T00:21:58.852Z,1006.72
2016-02-03T00:22:58.917Z,1006.69
2016-02-03T00:23:58.972Z,1006.72
2016-02-03T00:24:59.021Z,1006.75
2016-02-03T00:25:59.070Z,1006.73
2016-02-03T00:26:59.135Z,1006.73
2016-02-03T00:27:59.189Z,1006.75
2016-02-03T00:28:59.239Z,1006.77
2016-02-03T00:29:59.273Z,1006.79
2016-02-03T00:30:59.337Z,1006.8
2016-02-03T00:31:59.404Z,1006.8
2016-02-03T00:32:59.449Z,1006.77
2016-02-03T00:33:59.500Z,1006.83
2016-02-03T00:34:59.549Z,1006.84
2016-02-03T00:35:59.598Z,1006.8
2016-02-03T00:36:59.679Z,1006.79
2016-02-03T00:37:59.714Z,1006.82
2016-02-03T00:38:59.779Z,1006.81
2016-02-03T00:39:59.828Z,1006.84
2016-02-03T00:40:59.890Z,1006.82
2016-02-03T00:41:59.940Z,1006.8
2016-02-03T00:42:59.977Z,1006.83
2016-02-03T00:44:00.033Z,1006.82
2016-02-03T00:45:00.113Z,1006.85
2016-02-03T00:46:00.147Z,1006.85
2016-02-03T00:47:00.196Z,1006.84
2016-02-03T00:48:00.246Z,1006.85
2016-02-03T00:49:00.311Z,1006.89
2016-02-03T00:50:00.378Z,1006.85
2016-02-03T00:51:00.396Z,1006.88
2016-02-03T00:52:00.462Z,1006.85
2016-02-03T00:53:00.515Z,1006.83
2016-02-03T00:54:00.579Z,1006.79
2016-02-03T00:55:00.629Z,1006.85
2016-02-03T00:56:00.678Z,1006.81
2016-02-03T00:57:00.745Z,1006.81
2016-02-03T00:58:00.779Z,1006.85
2016-02-03T00:59:00.827Z,1006.82
2016-02-03T01:00:00.877Z,1006.81
2016-02-03T01:01:00.927Z,1006.85
2016-02-03T01:02:00.993Z,1006.84
2016-02-03T01:03:01.057Z,1006.87
2016-02-03T01:04:01.126Z,1006.87
2016-02-03T01:05:01.159Z,1006.87
2016-02-03T01:06:01.225Z,1006.9
2016-02-03T01:07:01.260Z,1006.88
2016-02-03T01:08:01.325Z,1006.88
2016-02-03T01:09:01.379Z,1006.88
2016-02-03T01:10:01.430Z,1006.9
2016-02-03T01:11:01.479Z,1006.86
2016-02-03T01:12:01.544Z,1006.93
2016-02-03T01:13:01.593Z,1006.91
2016-02-03T01:14:01.643Z,1006.88
2016-02-03T01:15:01.694Z,1006.9
2016-02-03T01:16:01.759Z,1006.84
2016-02-03T01:17:01.792Z,1006.85
2016-02-03T01:18:01.857Z,1006.87
2016-02-03T01:19:01.907Z,1006.9
2016-02-03T01:20:01.958Z,1006.89
2016-02-03T01:21:02.020Z,1006.91
2016-02-03T01:22:02.069Z,1006.95
2016-02-03T01:23:02.119Z,1006.98
2016-02-03T01:24:02.171Z,1006.97
2016-02-03T01:25:02.206Z,1006.99
2016-02-03T01:26:02.272Z,1006.95
2016-02-03T01:27:02.320Z,1006.96
2016-02-03T01:28:02.371Z,1006.94
2016-02-03T01:29:02.421Z,1006.99
2016-02-03T01:30:02.486Z,1007
2016-02-03T01:31:02.536Z,1007.01
2016-02-03T01:32:02.585Z,1007.05
2016-02-03T01:33:02.667Z,1007.01
2016-02-03T01:34:02.700Z,1006.99
2016-02-03T01:35:02.751Z,1007.05
2016-02-03T01:36:02.800Z,1007.02
2016-02-03T01:37:02.865Z,1007.03
2016-02-03T01:38:02.914Z,1007.07
2016-02-03T01:39:02.979Z,1007.04
2016-02-03T01:40:03.030Z,1006.99
2016-02-03T01:41:03.079Z,1007.08
2016-02-03T01:42:03.129Z,1007.03
2016-02-03T01:43:03.179Z,1007.01
2016-02-03T01:44:03.260Z,1007.02
2016-02-03T01:45:03.293Z,1007.06
2016-02-03T01:46:03.327Z,1007.05
2016-02-03T01:47:03.392Z,1007.09
2016-02-03T01:48:03.474Z,1007.1
2016-02-03T01:49:03.507Z,1007.06
2016-02-03T01:50:03.557Z,1007.15
2016-02-03T01:51:03.606Z,1007.11
2016-02-03T01:52:03.657Z,1007.08
2016-02-03T01:53:03.724Z,1007.07
2016-02-03T01:54:03.760Z,1007.08
2016-02-03T01:55:03.824Z,1007.11
2016-02-03T01:56:03.874Z,1007.1
2016-02-03T01:57:03.923Z,1006.98
2016-02-03T01:58:03.973Z,1007.04
2016-02-03T01:59:04.074Z,1007
2016-02-03T02:00:04.092Z,1006.99
2016-02-03T02:01:04.142Z,1006.99
2016-02-03T02:02:04.207Z,1007.01
2016-02-03T02:03:04.242Z,1006.98
2016-02-03T02:04:04.322Z,1006.99
2016-02-03T02:05:04.356Z,1007
2016-02-03T02:06:04.405Z,1006.97
2016-02-03T02:07:04.471Z,1006.97
2016-02-03T02:08:04.536Z,1007.01
2016-02-03T02:09:04.570Z,1007.04
2016-02-03T02:10:04.635Z,1007
2016-02-03T02:11:04.686Z,1007.04
2016-02-03T02:12:04.735Z,1006.99
2016-02-03T02:13:04.785Z,1006.91
2016-02-03T02:14:04.834Z,1007.01
2016-02-03T02:15:04.889Z,1007.01
2016-02-03T02:16:04.954Z,1007.01
2016-02-03T02:17:05.003Z,1007.07
2016-02-03T02:18:05.038Z,1007.03
2016-02-03T02:19:05.104Z,1007.09
2016-02-03T02:20:05.168Z,1007.07
2016-02-03T02:21:05.234Z,1007.1
2016-02-03T02:22:05.276Z,1007.09
2016-02-03T02:23:05.309Z,1007.11
2016-02-03T02:24:05.390Z,1007.09
2016-02-03T02:25:05.425Z,1007.11
2016-02-03T02:26:05.475Z,1007.14
2016-02-03T02:27:05.539Z,1007.17
2016-02-03T02:28:05.589Z,1007.19
2016-02-03T02:29:05.638Z,1007.16
2016-02-03T02:30:05.690Z,1007.14
2016-02-03T02:31:05.739Z,1007.11
2016-02-03T02:32:05.805Z,1007.12
2016-02-03T02:33:05.856Z,1007.14
2016-02-03T02:34:05.907Z,1007.13
2016-02-03T02:35:05.971Z,1007.1
2016-02-03T02:36:06.020Z,1007.11
2016-02-03T02:37:06.057Z,1007.09
2016-02-03T02:38:06.106Z,1007.04
2016-02-03T02:39:06.173Z,1007.08
2016-02-03T02:40:06.222Z,1007.11
2016-02-03T02:41:06.287Z,1007.14
2016-02-03T02:42:06.323Z,1007.12
2016-02-03T02:43:06.390Z,1007.16
2016-02-03T02:44:06.439Z,1007.11
2016-02-03T02:45:06.504Z,1007.15
2016-02-03T02:46:06.553Z,1007.05
2016-02-03T02:47:06.587Z,1007.06
2016-02-03T02:48:06.653Z,1007.08
2016-02-03T02:49:06.692Z,1007.07
2016-02-03T02:50:06.756Z,1007.01
2016-02-03T02:51:06.805Z,1007
2016-02-03T02:52:06.856Z,1006.96
2016-02-03T02:53:06.906Z,1006.96
2016-02-03T02:54:06.971Z,1006.96
2016-02-03T02:55:07.036Z,1007.01
2016-02-03T02:56:07.086Z,1006.92
2016-02-03T02:57:08.307Z,1006.93
2016-02-03T02:58:07.197Z,1006.94
2016-02-03T02:59:07.233Z,1006.93
2016-02-03T03:00:07.329Z,1006.93
2016-02-03T03:01:07.348Z,1006.93
2016-02-03T03:02:07.382Z,1006.97
2016-02-03T03:03:07.431Z,1006.93
2016-02-03T03:04:07.496Z,1006.9
2016-02-03T03:05:07.562Z,1006.93
2016-02-03T03:06:07.611Z,1006.92
2016-02-03T03:07:07.662Z,1006.94
2016-02-03T03:08:07.712Z,1006.88
2016-02-03T03:09:07.778Z,1006.81
2016-02-03T03:10:07.843Z,1006.82
2016-02-03T03:11:07.892Z,1006.82
2016-02-03T03:12:07.927Z,1006.81
2016-02-03T03:13:07.978Z,1006.74
2016-02-03T03:14:08.043Z,1006.73
2016-02-03T03:15:08.092Z,1006.69
2016-02-03T03:16:08.127Z,1006.68
2016-02-03T03:17:08.193Z,1006.67
2016-02-03T03:18:08.241Z,1006.73
2016-02-03T03:19:08.290Z,1006.73
2016-02-03T03:20:08.341Z,1006.75
2016-02-03T03:21:08.407Z,1006.72
2016-02-03T03:22:08.457Z,1006.8
2016-02-03T03:23:08.506Z,1006.85
2016-02-03T03:24:08.555Z,1006.81
2016-02-03T03:25:08.622Z,1006.82
2016-02-03T03:26:08.672Z,1006.8
2016-02-03T03:27:08.721Z,1006.84
2016-02-03T03:28:08.787Z,1006.82
2016-02-03T03:29:08.820Z,1006.79
2016-02-03T03:30:08.887Z,1006.78
2016-02-03T03:31:08.936Z,1006.72
2016-02-03T03:32:09.018Z,1006.7
2016-02-03T03:33:09.052Z,1006.72
2016-02-03T03:34:09.101Z,1006.71
2016-02-03T03:35:09.151Z,1006.72
2016-02-03T03:36:09.201Z,1006.67
2016-02-03T03:37:09.249Z,1006.69
2016-02-03T03:38:09.299Z,1006.7
2016-02-03T03:39:09.364Z,1006.69
2016-02-03T03:40:09.430Z,1006.68
2016-02-03T03:41:09.464Z,1006.69
2016-02-03T03:42:09.529Z,1006.7
2016-02-03T03:43:09.594Z,1006.69
2016-02-03T03:44:09.631Z,1006.69
2016-02-03T03:45:09.696Z,1006.65
2016-02-03T03:46:09.730Z,1006.64
2016-02-03T03:47:09.779Z,1006.67
2016-02-03T03:48:09.860Z,1006.66
2016-02-03T03:49:09.909Z,1006.64
2016-02-03T03:50:09.959Z,1006.66
2016-02-03T03:51:09.994Z,1006.66
2016-02-03T03:52:10.059Z,1006.72
2016-02-03T03:53:10.124Z,1006.72
2016-02-03T03:54:10.175Z,1006.69
2016-02-03T03:55:10.209Z,1006.7
2016-02-03T03:56:10.274Z,1006.69
2016-02-03T03:57:10.324Z,1006.7
2016-02-03T03:58:10.388Z,1006.71
2016-02-03T03:59:10.439Z,1006.66
2016-02-03T04:00:10.489Z,1006.69
2016-02-03T04:01:10.539Z,1006.68
2016-02-03T04:02:10.588Z,1006.68
2016-02-03T04:03:10.673Z,1006.61
2016-02-03T04:04:10.706Z,1006.59
2016-02-03T04:05:10.757Z,1006.61
2016-02-03T04:06:10.806Z,1006.63
2016-02-03T04:07:10.855Z,1006.62
2016-02-03T04:08:10.921Z,1006.59
2016-02-03T04:09:10.970Z,1006.54
2016-02-03T04:10:11.020Z,1006.5
2016-02-03T04:11:11.070Z,1006.57
2016-02-03T04:12:11.120Z,1006.61
2016-02-03T04:13:11.170Z,1006.55
2016-02-03T04:14:11.235Z,1006.59
2016-02-03T04:15:11.286Z,1006.55
2016-02-03T04:16:11.337Z,1006.61
2016-02-03T04:17:11.385Z,1006.53
2016-02-03T04:18:11.451Z,1006.53
2016-02-03T04:19:11.500Z,1006.53
2016-02-03T04:20:11.550Z,1006.48
2016-02-03T04:21:11.615Z,1006.48
2016-02-03T04:22:11.664Z,1006.43
2016-02-03T04:23:11.716Z,1006.45
2016-02-03T04:24:11.765Z,1006.48
2016-02-03T04:25:11.831Z,1006.5
2016-02-03T04:26:11.880Z,1006.55
2016-02-03T04:27:11.933Z,1006.49
2016-02-03T04:28:11.983Z,1006.48
2016-02-03T04:29:12.032Z,1006.45
2016-02-03T04:30:12.084Z,1006.48
2016-02-03T04:31:12.149Z,1006.45
2016-02-03T04:32:12.198Z,1006.5
2016-02-03T04:33:12.248Z,1006.45
2016-02-03T04:34:12.299Z,1006.49
2016-02-03T04:35:12.350Z,1006.49
2016-02-03T04:36:12.399Z,1006.45
2016-02-03T04:37:12.480Z,1006.49
2016-02-03T04:38:12.530Z,1006.48
2016-02-03T04:39:12.563Z,1006.43
2016-02-03T04:40:12.628Z,1006.46
2016-02-03T04:41:12.678Z,1006.43
2016-02-03T04:42:12.728Z,1006.46
2016-02-03T04:43:12.778Z,1006.49
2016-02-03T04:44:12.827Z,1006.54
2016-02-03T04:45:12.909Z,1006.55
2016-02-03T04:46:12.942Z,1006.55
2016-02-03T04:47:12.992Z,1006.53
2016-02-03T04:48:13.042Z,1006.5
2016-02-03T04:49:13.092Z,1006.54
2016-02-03T04:50:13.157Z,1006.54
2016-02-03T04:51:13.206Z,1006.62
2016-02-03T04:52:13.272Z,1006.6
2016-02-03T04:53:13.306Z,1006.58
2016-02-03T04:54:13.372Z,1006.59
2016-02-03T04:55:13.407Z,1006.57
2016-02-03T04:56:13.457Z,1006.56
2016-02-03T04:57:13.521Z,1006.52
2016-02-03T04:58:13.587Z,1006.51
2016-02-03T04:59:13.636Z,1006.44
2016-02-03T05:00:13.686Z,1006.46
2016-02-03T05:01:13.735Z,1006.45
2016-02-03T05:02:13.801Z,1006.43
2016-02-03T05:03:13.851Z,1006.38
2016-02-03T05:04:13.904Z,1006.39
2016-02-03T05:05:13.960Z,1006.39
2016-02-03T05:06:14.010Z,1006.36
2016-02-03T05:07:14.059Z,1006.35
2016-02-03T05:08:14.109Z,1006.32
2016-02-03T05:09:14.174Z,1006.31
2016-02-03T05:10:14.224Z,1006.25
2016-02-03T05:11:14.273Z,1006.3
2016-02-03T05:12:14.324Z,1006.32
2016-02-03T05:13:14.376Z,1006.33
2016-02-03T05:14:14.426Z,1006.35
2016-02-03T05:15:14.475Z,1006.38
2016-02-03T05:16:14.540Z,1006.39
2016-02-03T05:17:14.590Z,1006.33
2016-02-03T05:18:14.641Z,1006.33
2016-02-03T05:19:14.689Z,1006.35
2016-02-03T05:20:14.755Z,1006.37
2016-02-03T05:21:14.804Z,1006.37
2016-02-03T05:22:14.854Z,1006.36
2016-02-03T05:23:14.904Z,1006.39
2016-02-03T05:24:14.955Z,1006.42
2016-02-03T05:25:15.021Z,1006.34
2016-02-03T05:26:15.071Z,1006.38
2016-02-03T05:27:15.121Z,1006.4
2016-02-03T05:28:15.170Z,1006.4
2016-02-03T05:29:15.251Z,1006.39
2016-02-03T05:30:15.289Z,1006.43
2016-02-03T05:31:15.339Z,1006.39
2016-02-03T05:32:15.388Z,1006.41
2016-02-03T05:33:15.437Z,1006.44
2016-02-03T05:34:15.503Z,1006.37
2016-02-03T05:35:15.553Z,1006.43
2016-02-03T05:36:15.587Z,1006.45
2016-02-03T05:37:15.653Z,1006.4
2016-02-03T05:38:15.738Z,1006.48
2016-02-03T05:39:15.757Z,1006.46
2016-02-03T05:40:15.807Z,1006.45
2016-02-03T05:41:15.888Z,1006.45
2016-02-03T05:42:15.922Z,1006.5
2016-02-03T05:43:15.972Z,1006.46
2016-02-03T05:44:16.023Z,1006.5
2016-02-03T05:45:16.088Z,1006.5
2016-02-03T05:46:16.138Z,1006.52
2016-02-03T05:47:16.186Z,1006.58
2016-02-03T05:48:16.253Z,1006.58
2016-02-03T05:49:16.302Z,1006.61
2016-02-03T05:50:16.336Z,1006.62
2016-02-03T05:51:16.416Z,1006.61
2016-02-03T05:52:16.466Z,1006.63
2016-02-03T05:53:16.517Z,1006.69
2016-02-03T05:54:16.582Z,1006.69
2016-02-03T05:55:16.600Z,1006.68
2016-02-03T05:56:16.669Z,1006.69
2016-02-03T05:57:16.718Z,1006.69
2016-02-03T05:58:16.783Z,1006.69
2016-02-03T05:59:16.818Z,1006.7
2016-02-03T06:00:16.866Z,1006.7
2016-02-03T06:01:16.932Z,1006.64
2016-02-03T06:02:16.982Z,1006.62
2016-02-03T06:03:17.031Z,1006.6
2016-02-03T06:04:17.096Z,1006.63
2016-02-03T06:05:17.147Z,1006.63
2016-02-03T06:06:17.195Z,1006.6
2016-02-03T06:07:17.245Z,1006.52
2016-02-03T06:08:17.298Z,1006.54
2016-02-03T06:09:17.349Z,1006.52
2016-02-03T06:10:17.413Z,1006.59
2016-02-03T06:11:17.463Z,1006.55
2016-02-03T06:12:17.512Z,1006.63
2016-02-03T06:13:17.563Z,1006.63
2016-02-03T06:14:17.628Z,1006.66
2016-02-03T06:15:17.681Z,1006.67
2016-02-03T06:16:17.730Z,1006.68
2016-02-03T06:17:17.781Z,1006.64
2016-02-03T06:18:17.830Z,1006.63
2016-02-03T06:19:17.880Z,1006.63
2016-02-03T06:20:17.945Z,1006.63
2016-02-03T06:21:17.995Z,1006.63
2016-02-03T06:22:18.046Z,1006.65
2016-02-03T06:23:18.102Z,1006.63
2016-02-03T06:24:18.152Z,1006.65
2016-02-03T06:25:18.218Z,1006.62
2016-02-03T06:26:18.268Z,1006.61
2016-02-03T06:27:18.321Z,1006.6
2016-02-03T06:28:18.371Z,1006.66
2016-02-03T06:29:18.421Z,1006.59
2016-02-03T06:30:18.501Z,1006.61
2016-02-03T06:31:18.534Z,1006.59
2016-02-03T06:32:18.584Z,1006.61
2016-02-03T06:33:18.635Z,1006.6
2016-02-03T06:34:18.684Z,1006.65
2016-02-03T06:35:18.748Z,1006.64
2016-02-03T06:36:18.814Z,1006.64
2016-02-03T06:37:18.862Z,1006.68
2016-02-03T06:38:18.913Z,1006.72
2016-02-03T06:39:18.962Z,1006.71
2016-02-03T06:40:19.011Z,1006.71
2016-02-03T06:41:19.045Z,1006.72
2016-02-03T06:42:19.111Z,1006.75
2016-02-03T06:43:19.176Z,1006.75
2016-02-03T06:44:19.225Z,1006.74
2016-02-03T06:45:19.275Z,1006.78
2016-02-03T06:46:19.328Z,1006.77
2016-02-03T06:47:19.392Z,1006.79
2016-02-03T06:48:19.442Z,1006.76
2016-02-03T06:49:19.491Z,1006.77
2016-02-03T06:50:19.541Z,1006.76
2016-02-03T06:51:19.623Z,1006.81
2016-02-03T06:52:19.644Z,1006.8
2016-02-03T06:53:19.697Z,1006.81
2016-02-03T06:54:19.746Z,1006.83
2016-02-03T06:55:19.827Z,1006.84
2016-02-03T06:56:19.862Z,1006.87
2016-02-03T06:57:19.912Z,1006.91
2016-02-03T06:58:19.978Z,1006.92
2016-02-03T06:59:20.028Z,1006.92
2016-02-03T07:00:20.077Z,1006.91
2016-02-03T07:01:20.127Z,1006.9
2016-02-03T07:02:20.167Z,1006.91
2016-02-03T07:03:20.221Z,1006.91
2016-02-03T07:04:20.260Z,1006.9
2016-02-03T07:05:20.300Z,1006.85
2016-02-03T07:06:20.341Z,1006.91
2016-02-03T07:07:20.402Z,1006.89
2016-02-03T07:08:20.448Z,1006.85
2016-02-03T07:09:20.478Z,1006.85
2016-02-03T07:10:20.542Z,1006.9
2016-02-03T07:11:20.588Z,1006.84
2016-02-03T07:12:20.651Z,1006.83
2016-02-03T07:13:20.699Z,1006.89
2016-02-03T07:14:20.747Z,1006.88
2016-02-03T07:15:20.796Z,1006.94
2016-02-03T07:16:20.844Z,1006.94
2016-02-03T07:17:20.909Z,1006.93
2016-02-03T07:18:20.958Z,1006.97
2016-02-03T07:19:21.007Z,1007
2016-02-03T07:20:21.058Z,1007.04
2016-02-03T07:21:21.106Z,1007
2016-02-03T07:22:21.156Z,1006.97
2016-02-03T07:23:21.206Z,1006.98
2016-02-03T07:24:21.271Z,1006.99
2016-02-03T07:25:21.321Z,1006.93
2016-02-03T07:26:21.371Z,1006.96
2016-02-03T07:27:21.419Z,1006.99
2016-02-03T07:28:21.469Z,1006.98
2016-02-03T07:29:21.553Z,1006.97
2016-02-03T07:30:21.588Z,1006.97
2016-02-03T07:31:21.637Z,1006.96
2016-02-03T07:32:21.686Z,1006.99
2016-02-03T07:33:21.751Z,1006.99
2016-02-03T07:34:21.802Z,1007.02
2016-02-03T07:35:21.866Z,1007
2016-02-03T07:36:21.916Z,1007
2016-02-03T07:37:21.966Z,1007.01
2016-02-03T07:38:22.016Z,1006.99
2016-02-03T07:39:22.066Z,1007.02
2016-02-03T07:40:22.115Z,1007.03
2016-02-03T07:41:22.165Z,1007.03
2016-02-03T07:42:22.231Z,1007
2016-02-03T07:43:22.295Z,1007.05
2016-02-03T07:44:22.346Z,1006.98
2016-02-03T07:45:22.380Z,1007.04
2016-02-03T07:46:22.461Z,1007.05
2016-02-03T07:47:22.494Z,1007.06
2016-02-03T07:48:22.544Z,1007.1
2016-02-03T07:49:22.591Z,1007.04
2016-02-03T07:50:22.671Z,1007.08
2016-02-03T07:51:22.706Z,1007.1
2016-02-03T07:52:22.772Z,1007.12
2016-02-03T07:53:22.821Z,1007.12
2016-02-03T07:54:22.855Z,1007.15
2016-02-03T07:55:22.920Z,1007.21
2016-02-03T07:56:22.970Z,1007.11
2016-02-03T07:57:23.035Z,1007.18
2016-02-03T07:58:23.069Z,1007.16
2016-02-03T07:59:23.134Z,1007.27
2016-02-03T08:00:23.183Z,1007.18
2016-02-03T08:01:23.233Z,1007.22
2016-02-03T08:02:23.283Z,1007.23
2016-02-03T08:03:23.364Z,1007.18
2016-02-03T08:04:23.397Z,1007.19
2016-02-03T08:05:23.432Z,1007.17
2016-02-03T08:06:23.512Z,1007.14
2016-02-03T08:07:23.563Z,1007.23
2016-02-03T08:08:23.612Z,1007.25
2016-02-03T08:09:23.646Z,1007.24
2016-02-03T08:10:23.711Z,1007.26
2016-02-03T08:11:23.761Z,1007.3
2016-02-03T08:12:23.810Z,1007.27
2016-02-03T08:13:23.876Z,1007.26
2016-02-03T08:14:23.941Z,1007.31
2016-02-03T08:15:23.975Z,1007.27
2016-02-03T08:16:24.024Z,1007.28
2016-02-03T08:17:24.074Z,1007.25
2016-02-03T08:18:24.155Z,1007.25
2016-02-03T08:19:24.174Z,1007.28
2016-02-03T08:20:24.240Z,1007.35
2016-02-03T08:21:24.308Z,1007.26
2016-02-03T08:22:24.341Z,1007.36
2016-02-03T08:23:24.392Z,1007.33
2016-02-03T08:24:24.441Z,1007.39
2016-02-03T08:25:24.490Z,1007.41
2016-02-03T08:26:24.555Z,1007.41
2016-02-03T08:27:24.605Z,1007.42
2016-02-03T08:28:24.655Z,1007.42
2016-02-03T08:29:24.705Z,1007.4
2016-02-03T08:30:24.753Z,1007.39
2016-02-03T08:31:24.803Z,1007.43
2016-02-03T08:32:24.854Z,1007.4
2016-02-03T08:33:24.920Z,1007.43
2016-02-03T08:34:24.969Z,1007.42
2016-02-03T08:35:25.018Z,1007.45
2016-02-03T08:36:25.067Z,1007.46
2016-02-03T08:37:25.117Z,1007.47
2016-02-03T08:38:25.166Z,1007.48
2016-02-03T08:39:25.217Z,1007.55
2016-02-03T08:40:25.267Z,1007.55
2016-02-03T08:41:25.332Z,1007.53
2016-02-03T08:42:25.397Z,1007.48
2016-02-03T08:43:25.431Z,1007.53
2016-02-03T08:44:25.498Z,1007.52
2016-02-03T08:45:25.516Z,1007.53
2016-02-03T08:46:25.583Z,1007.56
2016-02-03T08:47:25.632Z,1007.52
2016-02-03T08:48:25.681Z,1007.6
2016-02-03T08:49:25.735Z,1007.61
2016-02-03T08:50:25.785Z,1007.68
2016-02-03T08:51:25.837Z,1007.69
2016-02-03T08:52:25.887Z,1007.62
2016-02-03T08:53:25.937Z,1007.56
2016-02-03T08:54:25.986Z,1007.55
2016-02-03T08:55:26.036Z,1007.59
2016-02-03T08:56:26.086Z,1007.65
2016-02-03T08:57:26.152Z,1007.66
2016-02-03T08:58:26.202Z,1007.67
2016-02-03T08:59:26.251Z,1007.74
2016-02-03T09:00:26.300Z,1007.66
2016-02-03T09:01:26.366Z,1007.65
2016-02-03T09:02:26.400Z,1007.68
2016-02-03T09:03:26.471Z,1007.73
2016-02-03T09:04:26.527Z,1007.7
2016-02-03T09:05:26.577Z,1007.67
2016-02-03T09:06:26.618Z,1007.73
2016-02-03T09:07:26.668Z,1007.73
2016-02-03T09:08:26.732Z,1007.68
2016-02-03T09:09:26.782Z,1007.7
2016-02-03T09:10:26.833Z,1007.74
2016-02-03T09:11:26.882Z,1007.67
2016-02-03T09:12:26.932Z,1007.64
2016-02-03T09:13:26.982Z,1007.63
2016-02-03T09:14:27.050Z,1007.65
2016-02-03T09:15:27.099Z,1007.77
2016-02-03T09:16:27.149Z,1007.71
2016-02-03T09:17:27.198Z,1007.74
2016-02-03T09:18:27.249Z,1007.77
2016-02-03T09:19:27.298Z,1007.75
2016-02-03T09:20:27.362Z,1007.78
2016-02-03T09:21:27.412Z,1007.79
2016-02-03T09:22:27.468Z,1007.73
2016-02-03T09:23:27.502Z,1007.73
2016-02-03T09:24:27.567Z,1007.78
2016-02-03T09:25:27.616Z,1007.77
2016-02-03T09:26:27.666Z,1007.86
2016-02-03T09:27:27.715Z,1007.85
2016-02-03T09:28:27.765Z,1007.8
2016-02-03T09:29:27.829Z,1007.8
2016-02-03T09:30:27.895Z,1007.83
2016-02-03T09:31:27.929Z,1007.85
2016-02-03T09:32:27.979Z,1007.87
2016-02-03T09:33:28.028Z,1007.9
2016-02-03T09:34:28.078Z,1007.89
2016-02-03T09:35:28.159Z,1007.88
2016-02-03T09:36:28.193Z,1007.98
2016-02-03T09:37:28.226Z,1007.92
2016-02-03T09:38:28.292Z,1007.97
2016-02-03T09:39:28.341Z,1007.98
2016-02-03T09:40:28.391Z,1007.99
2016-02-03T09:41:28.441Z,1007.91
2016-02-03T09:42:28.506Z,1007.97
2016-02-03T09:43:28.556Z,1007.96
2016-02-03T09:44:28.606Z,1007.94
2016-02-03T09:45:28.655Z,1008.03
2016-02-03T09:46:28.737Z,1007.99
2016-02-03T09:47:28.771Z,1008
2016-02-03T09:48:28.820Z,1007.98
2016-02-03T09:49:28.885Z,1007.93
2016-02-03T09:50:28.921Z,1007.91
2016-02-03T09:51:28.986Z,1007.86
2016-02-03T09:52:29.035Z,1007.89
2016-02-03T09:53:29.085Z,1007.86
2016-02-03T09:54:29.135Z,1007.91
2016-02-03T09:55:29.185Z,1007.98
2016-02-03T09:56:29.234Z,1007.97
2016-02-03T09:57:29.299Z,1007.99
2016-02-03T09:58:29.348Z,1008
2016-02-03T09:59:29.398Z,1007.97
2016-02-03T10:00:29.449Z,1008.03
2016-02-03T10:01:29.498Z,1007.93
2016-02-03T10:02:29.562Z,1007.94
2016-02-03T10:03:29.612Z,1007.94
2016-02-03T10:04:29.661Z,1007.92
2016-02-03T10:05:29.712Z,1007.92
2016-02-03T10:06:29.762Z,1007.93
2016-02-03T10:07:29.827Z,1007.91
2016-02-03T10:08:29.860Z,1007.88
2016-02-03T10:09:29.927Z,1007.93
2016-02-03T10:10:29.976Z,1007.93
2016-02-03T10:11:30.041Z,1007.87
2016-02-03T10:12:30.090Z,1007.94
2016-02-03T10:13:30.127Z,1007.92
2016-02-03T10:14:30.177Z,1007.95
2016-02-03T10:15:30.227Z,1007.95
2016-02-03T10:16:30.291Z,1008.01
2016-02-03T10:17:30.341Z,1008
2016-02-03T10:18:30.392Z,1008.01
2016-02-03T10:19:30.452Z,1008.07
2016-02-03T10:20:30.502Z,1008.04
2016-02-03T10:21:30.552Z,1008.07
2016-02-03T10:22:30.616Z,1008.11
2016-02-03T10:23:30.666Z,1008.07
2016-02-03T10:24:30.715Z,1008.02
2016-02-03T10:25:30.813Z,1008.06
2016-02-03T10:26:30.815Z,1008.05
2016-02-03T10:27:30.881Z,1008.01
2016-02-03T10:28:30.945Z,1008.1
2016-02-03T10:29:30.981Z,1008.09
2016-02-03T10:30:31.030Z,1008.06
2016-02-03T10:31:31.079Z,1008.04
2016-02-03T10:32:31.144Z,1008.06
2016-02-03T10:33:31.194Z,1008.02
2016-02-03T10:34:31.244Z,1008.08
2016-02-03T10:35:31.294Z,1008.15
2016-02-03T10:36:31.358Z,1008.19
2016-02-03T10:37:31.395Z,1008.16
2016-02-03T10:38:31.444Z,1008.21
2016-02-03T10:39:31.510Z,1008.23
2016-02-03T10:40:31.560Z,1008.2
2016-02-03T10:41:31.594Z,1008.19
2016-02-03T10:42:31.658Z,1008.21
2016-02-03T10:43:31.708Z,1008.15
2016-02-03T10:44:31.776Z,1008.19
2016-02-03T10:45:31.825Z,1008.23
2016-02-03T10:46:31.874Z,1008.15
2016-02-03T10:47:31.924Z,1008.25
2016-02-03T10:48:31.973Z,1008.19
2016-02-03T10:49:32.023Z,1008.21
2016-02-03T10:50:32.089Z,1008.2
2016-02-03T10:51:32.137Z,1008.25
2016-02-03T10:52:32.187Z,1008.16
2016-02-03T10:53:32.237Z,1008.26
2016-02-03T10:54:32.292Z,1008.19
2016-02-03T10:55:32.356Z,1008.19
2016-02-03T10:56:32.407Z,1008.29
2016-02-03T10:57:32.456Z,1008.19
2016-02-03T10:58:32.506Z,1008.2
2016-02-03T10:59:32.556Z,1008.24
2016-02-03T11:00:32.621Z,1008.26
2016-02-03T11:01:32.671Z,1008.19
2016-02-03T11:02:32.721Z,1008.13
2016-02-03T11:03:32.770Z,1008.11
2016-02-03T11:04:32.821Z,1008.13
2016-02-03T11:05:32.871Z,1008.19
2016-02-03T11:06:32.921Z,1008.15
2016-02-03T11:07:32.969Z,1008.15
2016-02-03T11:08:33.053Z,1008.15
2016-02-03T11:09:33.088Z,1008.2
2016-02-03T11:10:33.138Z,1008.16
2016-02-03T11:11:33.186Z,1008.15
2016-02-03T11:12:33.236Z,1008.08
2016-02-03T11:13:33.285Z,1008.11
2016-02-03T11:14:33.352Z,1008.15
2016-02-03T11:15:33.401Z,1008.14
2016-02-03T11:16:33.471Z,1008.09
2016-02-03T11:17:33.505Z,1008.09
2016-02-03T11:18:33.572Z,1008.17
2016-02-03T11:19:33.605Z,1008.18
2016-02-03T11:20:33.671Z,1008.15
2016-02-03T11:21:33.736Z,1008.13
2016-02-03T11:22:33.770Z,1008.12
2016-02-03T11:23:33.820Z,1008.18
2016-02-03T11:24:33.870Z,1008.16
2016-02-03T11:25:33.935Z,1008.21
2016-02-03T11:26:33.985Z,1008.13
2016-02-03T11:27:34.050Z,1008.17
2016-02-03T11:28:34.086Z,1008.15
2016-02-03T11:29:34.152Z,1008.12
2016-02-03T11:30:34.200Z,1008.17
2016-02-03T11:31:34.235Z,1008.19
2016-02-03T11:32:34.301Z,1008.15
2016-02-03T11:33:34.366Z,1008.24
2016-02-03T11:34:34.400Z,1008.18
2016-02-03T11:35:34.452Z,1008.16
2016-02-03T11:36:34.502Z,1008.18
2016-02-03T11:37:34.567Z,1008.25
2016-02-03T11:38:34.616Z,1008.31
2016-02-03T11:39:34.681Z,1008.23
2016-02-03T11:40:34.718Z,1008.23
2016-02-03T11:41:34.783Z,1008.21
2016-02-03T11:42:34.832Z,1008.25
2016-02-03T11:43:34.882Z,1008.24
2016-02-03T11:44:34.932Z,1008.26
2016-02-03T11:45:34.996Z,1008.17
2016-02-03T11:46:35.046Z,1008.17
2016-02-03T11:47:35.096Z,1008.22
2016-02-03T11:48:35.164Z,1008.21
2016-02-03T11:49:35.200Z,1008.13
2016-02-03T11:50:35.249Z,1008.23
2016-02-03T11:51:35.330Z,1008.18
2016-02-03T11:52:35.349Z,1008.13
2016-02-03T11:53:35.416Z,1008.17
2016-02-03T11:54:35.466Z,1008.26
2016-02-03T11:55:35.515Z,1008.18
2016-02-03T11:56:35.580Z,1008.23
2016-02-03T11:57:35.630Z,1008.17
2016-02-03T11:58:35.664Z,1008.24
2016-02-03T11:59:35.732Z,1008.17
2016-02-03T12:00:35.780Z,1008.21
2016-02-03T12:01:35.830Z,1008.13
2016-02-03T12:02:35.895Z,1008.15
2016-02-03T12:03:35.929Z,1008.2
2016-02-03T12:04:35.999Z,1008.16
2016-02-03T12:05:36.049Z,1008.22
2016-02-03T12:06:36.099Z,1008.18
2016-02-03T12:07:36.149Z,1008.2
2016-02-03T12:08:36.199Z,1008.24
2016-02-03T12:09:36.263Z,1008.2